sensor_id;sensor_type;location;lat;lon;timestamp;P1;durP1;ratioP1;P2;durP2;ratioP2
63945;SDS011;50122;56.330;43.838;2022-10-16T16:23:15;20.03;;;8.57;;
63945;SDS011;50122;56.330;43.838;2022-10-16T16:25:42;19.95;;;10.10;;
63945;SDS011;50122;56.330;43.838;2022-10-16T16:28:09;18.85;;;9.75;;
63945;SDS011;50122;56.330;43.838;2022-10-16T16:30:42;17.48;;;9.98;;
63945;SDS011;50122;56.330;43.838;2022-10-16T16:33:13;15.77;;;9.32;;
63945;SDS011;50122;56.330;43.838;2022-10-16T16:35:43;18.65;;;9.30;;
63945;SDS011;50122;56.330;43.838;2022-10-16T16:38:10;21.77;;;11.35;;
63945;SDS011;50122;56.330;43.838;2022-10-16T16:40:37;22.98;;;11.60;;
63945;SDS011;50122;56.330;43.838;2022-10-16T16:43:03;17.77;;;10.73;;
63945;SDS011;50122;56.330;43.838;2022-10-16T16:45:30;17.35;;;10.00;;
63945;SDS011;50122;56.330;43.838;2022-10-16T16:47:58;15.85;;;10.40;;
63945;SDS011;50122;56.330;43.838;2022-10-16T16:50:24;16.60;;;10.63;;
63945;SDS011;50122;56.330;43.838;2022-10-16T16:52:51;16.35;;;9.90;;
63945;SDS011;50122;56.330;43.838;2022-10-16T16:55:17;30.65;;;10.55;;
63945;SDS011;50122;56.330;43.838;2022-10-16T16:57:44;26.35;;;10.32;;
63945;SDS011;50122;56.330;43.838;2022-10-16T17:00:14;14.27;;;9.75;;
63945;SDS011;50122;56.330;43.838;2022-10-16T17:02:49;19.88;;;10.43;;
63945;SDS011;50122;56.330;43.838;2022-10-16T17:05:16;15.80;;;10.32;;
63945;SDS011;50122;56.330;43.838;2022-10-16T17:07:44;17.58;;;10.35;;
63945;SDS011;50122;56.330;43.838;2022-10-16T17:10:10;16.55;;;10.98;;
63945;SDS011;50122;56.330;43.838;2022-10-16T17:12:37;17.27;;;10.93;;
63945;SDS011;50122;56.330;43.838;2022-10-16T17:15:07;19.63;;;11.70;;
63945;SDS011;50122;56.330;43.838;2022-10-16T17:17:34;17.75;;;11.25;;
63945;SDS011;50122;56.330;43.838;2022-10-16T17:20:00;16.98;;;11.27;;
63945;SDS011;50122;56.330;43.838;2022-10-16T17:22:28;16.88;;;11.23;;
63945;SDS011;50122;56.330;43.838;2022-10-16T17:24:55;14.30;;;9.18;;
63945;SDS011;50122;56.330;43.838;2022-10-16T17:27:22;15.95;;;9.20;;
63945;SDS011;50122;56.330;43.838;2022-10-16T17:29:50;14.82;;;8.63;;
63945;SDS011;50122;56.330;43.838;2022-10-16T17:32:17;14.32;;;8.73;;
63945;SDS011;50122;56.330;43.838;2022-10-16T17:34:46;21.80;;;8.98;;
63945;SDS011;50122;56.330;43.838;2022-10-16T17:37:13;23.23;;;9.50;;
63945;SDS011;50122;56.330;43.838;2022-10-16T17:39:43;19.70;;;9.02;;
63945;SDS011;50122;56.330;43.838;2022-10-16T17:42:10;19.15;;;9.43;;
63945;SDS011;50122;56.330;43.838;2022-10-16T17:44:37;19.80;;;9.07;;
63945;SDS011;50122;56.330;43.838;2022-10-16T17:47:04;18.15;;;9.02;;
63945;SDS011;50122;56.330;43.838;2022-10-16T17:49:33;29.20;;;10.63;;
63945;SDS011;50122;56.330;43.838;2022-10-16T17:52:05;21.05;;;10.57;;
63945;SDS011;50122;56.330;43.838;2022-10-16T17:54:31;23.40;;;12.05;;
63945;SDS011;50122;56.330;43.838;2022-10-16T17:56:58;25.63;;;13.10;;
63945;SDS011;50122;56.330;43.838;2022-10-16T17:59:25;27.67;;;14.55;;
63945;SDS011;50122;56.330;43.838;2022-10-16T18:01:51;22.50;;;13.80;;
63945;SDS011;50122;56.330;43.838;2022-10-16T18:04:21;23.38;;;13.95;;
63945;SDS011;50122;56.330;43.838;2022-10-16T18:06:47;21.45;;;14.27;;
63945;SDS011;50122;56.330;43.838;2022-10-16T18:09:15;20.48;;;12.18;;
63945;SDS011;50122;56.330;43.838;2022-10-16T18:11:43;23.92;;;13.32;;
63945;SDS011;50122;56.330;43.838;2022-10-16T18:14:11;24.50;;;13.98;;
63945;SDS011;50122;56.330;43.838;2022-10-16T18:16:40;25.30;;;13.95;;
63945;SDS011;50122;56.330;43.838;2022-10-16T18:19:27;30.80;;;17.75;;
63945;SDS011;50122;56.330;43.838;2022-10-16T18:21:56;24.43;;;13.93;;
63945;SDS011;50122;56.330;43.838;2022-10-16T18:24:26;22.33;;;12.20;;
63945;SDS011;50122;56.330;43.838;2022-10-16T18:26:54;21.08;;;11.20;;
63945;SDS011;50122;56.330;43.838;2022-10-16T18:29:24;18.75;;;10.75;;
63945;SDS011;50122;56.330;43.838;2022-10-16T18:31:52;18.45;;;10.18;;
63945;SDS011;50122;56.330;43.838;2022-10-16T18:34:22;17.95;;;10.57;;
63945;SDS011;50122;56.330;43.838;2022-10-16T18:39:26;17.20;;;9.25;;
63945;SDS011;50122;56.330;43.838;2022-10-16T18:41:59;15.65;;;9.73;;
63945;SDS011;50122;56.330;43.838;2022-10-16T18:44:27;18.13;;;10.05;;
63945;SDS011;50122;56.330;43.838;2022-10-16T18:46:56;14.60;;;9.63;;
63945;SDS011;50122;56.330;43.838;2022-10-16T18:49:27;15.63;;;9.10;;
63945;SDS011;50122;56.330;43.838;2022-10-16T18:51:54;18.63;;;10.52;;
63945;SDS011;50122;56.330;43.838;2022-10-16T18:54:22;16.95;;;9.65;;
63945;SDS011;50122;56.330;43.838;2022-10-16T18:56:50;16.63;;;10.23;;
63945;SDS011;50122;56.330;43.838;2022-10-16T18:59:18;16.70;;;9.60;;
63945;SDS011;50122;56.330;43.838;2022-10-16T19:01:45;17.35;;;9.80;;
63945;SDS011;50122;56.330;43.838;2022-10-16T19:04:14;17.05;;;8.93;;
63945;SDS011;50122;56.330;43.838;2022-10-16T19:06:42;18.05;;;8.05;;
63945;SDS011;50122;56.330;43.838;2022-10-16T19:09:14;18.30;;;8.13;;
63945;SDS011;50122;56.330;43.838;2022-10-16T19:11:42;16.50;;;8.65;;
63945;SDS011;50122;56.330;43.838;2022-10-16T19:14:10;14.07;;;7.47;;
63945;SDS011;50122;56.330;43.838;2022-10-16T19:16:38;14.20;;;7.97;;
63945;SDS011;50122;56.330;43.838;2022-10-16T19:19:12;14.75;;;7.80;;
63945;SDS011;50122;56.330;43.838;2022-10-16T19:21:47;11.88;;;7.32;;
63945;SDS011;50122;56.330;43.838;2022-10-16T19:24:16;14.45;;;8.30;;
63945;SDS011;50122;56.330;43.838;2022-10-16T19:26:43;14.90;;;9.32;;
63945;SDS011;50122;56.330;43.838;2022-10-16T19:29:10;17.17;;;8.25;;
63945;SDS011;50122;56.330;43.838;2022-10-16T19:31:37;16.40;;;8.90;;
63945;SDS011;50122;56.330;43.838;2022-10-16T19:34:07;18.52;;;9.45;;
63945;SDS011;50122;56.330;43.838;2022-10-16T19:36:42;23.30;;;12.43;;
63945;SDS011;50122;56.330;43.838;2022-10-16T19:39:12;17.30;;;9.48;;
63945;SDS011;50122;56.330;43.838;2022-10-16T19:41:40;17.48;;;9.07;;
63945;SDS011;50122;56.330;43.838;2022-10-16T19:44:07;17.33;;;9.27;;
63945;SDS011;50122;56.330;43.838;2022-10-16T19:46:36;15.90;;;8.77;;
63945;SDS011;50122;56.330;43.838;2022-10-16T19:49:04;18.15;;;9.10;;
63945;SDS011;50122;56.330;43.838;2022-10-16T19:51:33;15.90;;;9.10;;
63945;SDS011;50122;56.330;43.838;2022-10-16T19:54:01;14.40;;;8.80;;
63945;SDS011;50122;56.330;43.838;2022-10-16T19:56:33;12.40;;;7.65;;
63945;SDS011;50122;56.330;43.838;2022-10-16T19:59:01;15.13;;;8.60;;
63945;SDS011;50122;56.330;43.838;2022-10-16T20:01:28;16.33;;;9.82;;
63945;SDS011;50122;56.330;43.838;2022-10-16T20:03:56;14.95;;;9.90;;
63945;SDS011;50122;56.330;43.838;2022-10-16T20:06:23;20.20;;;9.85;;
63945;SDS011;50122;56.330;43.838;2022-10-16T20:08:51;16.98;;;10.10;;
63945;SDS011;50122;56.330;43.838;2022-10-16T20:11:21;18.30;;;8.68;;
63945;SDS011;50122;56.330;43.838;2022-10-16T20:13:49;15.60;;;8.75;;
63945;SDS011;50122;56.330;43.838;2022-10-16T20:16:16;16.77;;;8.98;;
63945;SDS011;50122;56.330;43.838;2022-10-16T20:18:48;18.58;;;10.13;;
63945;SDS011;50122;56.330;43.838;2022-10-16T20:21:18;20.27;;;11.23;;
63945;SDS011;50122;56.330;43.838;2022-10-16T20:23:58;22.13;;;11.13;;
63945;SDS011;50122;56.330;43.838;2022-10-16T20:26:26;20.40;;;10.85;;
63945;SDS011;50122;56.330;43.838;2022-10-16T20:28:53;16.67;;;10.55;;
63945;SDS011;50122;56.330;43.838;2022-10-16T20:31:22;18.65;;;10.65;;
63945;SDS011;50122;56.330;43.838;2022-10-16T20:33:51;19.25;;;10.90;;
63945;SDS011;50122;56.330;43.838;2022-10-16T20:36:19;18.60;;;9.38;;
63945;SDS011;50122;56.330;43.838;2022-10-16T20:38:48;15.40;;;8.68;;
63945;SDS011;50122;56.330;43.838;2022-10-16T20:41:16;13.82;;;7.85;;
63945;SDS011;50122;56.330;43.838;2022-10-16T20:43:44;14.75;;;8.80;;
63945;SDS011;50122;56.330;43.838;2022-10-16T20:46:15;14.63;;;8.65;;
63945;SDS011;50122;56.330;43.838;2022-10-16T20:48:43;18.70;;;9.55;;
63945;SDS011;50122;56.330;43.838;2022-10-16T20:51:11;18.10;;;9.23;;
63945;SDS011;50122;56.330;43.838;2022-10-16T20:53:42;15.30;;;8.68;;
63945;SDS011;50122;56.330;43.838;2022-10-16T20:56:12;17.00;;;8.43;;
63945;SDS011;50122;56.330;43.838;2022-10-16T20:58:41;14.85;;;8.25;;
63945;SDS011;50122;56.330;43.838;2022-10-16T21:01:08;17.70;;;7.93;;
63945;SDS011;50122;56.330;43.838;2022-10-16T21:03:37;16.20;;;7.13;;
63945;SDS011;50122;56.330;43.838;2022-10-16T21:06:04;13.05;;;7.57;;
63945;SDS011;50122;56.330;43.838;2022-10-16T21:08:37;15.85;;;7.00;;
63945;SDS011;50122;56.330;43.838;2022-10-16T21:11:12;13.90;;;7.15;;
63945;SDS011;50122;56.330;43.838;2022-10-16T21:13:46;12.05;;;7.00;;
63945;SDS011;50122;56.330;43.838;2022-10-16T21:16:14;12.32;;;7.07;;
63945;SDS011;50122;56.330;43.838;2022-10-16T21:18:41;14.40;;;7.70;;
63945;SDS011;50122;56.330;43.838;2022-10-16T21:21:17;11.88;;;7.63;;
63945;SDS011;50122;56.330;43.838;2022-10-16T21:23:48;13.00;;;7.30;;
63945;SDS011;50122;56.330;43.838;2022-10-16T21:26:17;13.50;;;8.25;;
63945;SDS011;50122;56.330;43.838;2022-10-16T21:28:48;14.25;;;7.82;;
63945;SDS011;50122;56.330;43.838;2022-10-16T21:31:16;17.75;;;7.68;;
63945;SDS011;50122;56.330;43.838;2022-10-16T21:33:48;15.45;;;7.88;;
63945;SDS011;50122;56.330;43.838;2022-10-16T21:36:22;18.08;;;7.80;;
63945;SDS011;50122;56.330;43.838;2022-10-16T21:38:54;13.52;;;8.40;;
63945;SDS011;50122;56.330;43.838;2022-10-16T21:41:25;14.07;;;8.13;;
63945;SDS011;50122;56.330;43.838;2022-10-16T21:43:54;14.50;;;8.25;;
63945;SDS011;50122;56.330;43.838;2022-10-16T21:46:23;14.77;;;7.95;;
63945;SDS011;50122;56.330;43.838;2022-10-16T21:48:51;14.13;;;7.47;;
63945;SDS011;50122;56.330;43.838;2022-10-16T21:51:25;15.32;;;7.60;;
63945;SDS011;50122;56.330;43.838;2022-10-16T21:53:59;13.43;;;7.28;;
63945;SDS011;50122;56.330;43.838;2022-10-16T21:56:27;11.07;;;6.68;;
63945;SDS011;50122;56.330;43.838;2022-10-16T21:58:54;14.10;;;7.05;;
63945;SDS011;50122;56.330;43.838;2022-10-16T22:01:22;11.43;;;6.90;;
63945;SDS011;50122;56.330;43.838;2022-10-16T22:03:50;13.45;;;7.32;;
63945;SDS011;50122;56.330;43.838;2022-10-16T22:06:17;13.55;;;7.43;;
63945;SDS011;50122;56.330;43.838;2022-10-16T22:08:48;12.00;;;7.20;;
63945;SDS011;50122;56.330;43.838;2022-10-16T22:11:18;14.25;;;6.90;;
63945;SDS011;50122;56.330;43.838;2022-10-16T22:13:48;12.55;;;7.05;;
63945;SDS011;50122;56.330;43.838;2022-10-16T22:16:23;12.23;;;6.60;;
63945;SDS011;50122;56.330;43.838;2022-10-16T22:18:51;10.57;;;6.38;;
63945;SDS011;50122;56.330;43.838;2022-10-16T22:21:19;13.32;;;6.85;;
63945;SDS011;50122;56.330;43.838;2022-10-16T22:23:46;13.15;;;6.88;;
63945;SDS011;50122;56.330;43.838;2022-10-16T22:26:16;11.98;;;6.70;;
63945;SDS011;50122;56.330;43.838;2022-10-16T22:28:43;12.80;;;6.78;;
63945;SDS011;50122;56.330;43.838;2022-10-16T22:31:11;12.32;;;6.57;;
63945;SDS011;50122;56.330;43.838;2022-10-16T22:33:39;13.68;;;6.82;;
63945;SDS011;50122;56.330;43.838;2022-10-16T22:36:07;10.63;;;6.03;;
63945;SDS011;50122;56.330;43.838;2022-10-16T22:38:36;12.52;;;6.57;;
63945;SDS011;50122;56.330;43.838;2022-10-16T22:41:04;10.07;;;6.45;;
63945;SDS011;50122;56.330;43.838;2022-10-16T22:43:36;11.10;;;6.65;;
63945;SDS011;50122;56.330;43.838;2022-10-16T22:46:06;11.98;;;6.65;;
63945;SDS011;50122;56.330;43.838;2022-10-16T22:48:34;14.20;;;6.82;;
63945;SDS011;50122;56.330;43.838;2022-10-16T22:51:02;11.40;;;7.00;;
63945;SDS011;50122;56.330;43.838;2022-10-16T22:53:32;9.65;;;6.13;;
63945;SDS011;50122;56.330;43.838;2022-10-16T22:55:59;10.43;;;6.32;;
63945;SDS011;50122;56.330;43.838;2022-10-16T22:58:26;10.13;;;6.20;;
63945;SDS011;50122;56.330;43.838;2022-10-16T23:00:53;11.70;;;6.20;;
63945;SDS011;50122;56.330;43.838;2022-10-16T23:03:20;9.57;;;5.50;;
63945;SDS011;50122;56.330;43.838;2022-10-16T23:05:47;11.77;;;5.82;;
63945;SDS011;50122;56.330;43.838;2022-10-16T23:08:14;10.00;;;6.55;;
63945;SDS011;50122;56.330;43.838;2022-10-16T23:10:42;10.23;;;5.72;;
63945;SDS011;50122;56.330;43.838;2022-10-16T23:13:10;9.98;;;5.70;;
63945;SDS011;50122;56.330;43.838;2022-10-16T23:15:38;10.57;;;5.47;;
63945;SDS011;50122;56.330;43.838;2022-10-16T23:18:06;11.73;;;5.38;;
63945;SDS011;50122;56.330;43.838;2022-10-16T23:20:33;8.98;;;5.97;;
63945;SDS011;50122;56.330;43.838;2022-10-16T23:23:00;8.90;;;5.88;;
63945;SDS011;50122;56.330;43.838;2022-10-16T23:25:27;8.88;;;5.53;;
63945;SDS011;50122;56.330;43.838;2022-10-16T23:27:54;10.25;;;5.10;;
63945;SDS011;50122;56.330;43.838;2022-10-16T23:30:21;10.73;;;6.20;;
63945;SDS011;50122;56.330;43.838;2022-10-16T23:32:48;13.60;;;6.60;;
63945;SDS011;50122;56.330;43.838;2022-10-16T23:35:15;16.00;;;6.45;;
63945;SDS011;50122;56.330;43.838;2022-10-16T23:37:41;18.02;;;7.20;;
63945;SDS011;50122;56.330;43.838;2022-10-16T23:40:08;16.45;;;6.70;;
63945;SDS011;50122;56.330;43.838;2022-10-16T23:42:35;14.05;;;6.20;;
63945;SDS011;50122;56.330;43.838;2022-10-16T23:45:02;12.55;;;6.43;;
63945;SDS011;50122;56.330;43.838;2022-10-16T23:47:29;14.30;;;6.25;;
63945;SDS011;50122;56.330;43.838;2022-10-16T23:49:56;13.32;;;6.03;;
63945;SDS011;50122;56.330;43.838;2022-10-16T23:52:23;14.95;;;6.10;;
63945;SDS011;50122;56.330;43.838;2022-10-16T23:54:49;16.90;;;5.45;;
63945;SDS011;50122;56.330;43.838;2022-10-16T23:57:16;10.23;;;5.35;;
63945;SDS011;50122;56.330;43.838;2022-10-16T23:59:43;9.95;;;5.50;;
